Rochelle, IL

3:55 AM CDT on August 29, 2015 (GMT -0500)
K9GPC | | Change Station
CLOSE
Current Station
Personal Weather Station
Location: Rochelle, IL
Elevation: 840 ft
Nearby Weather Stations

Elev 840 ft 41.94 °N, 89.08 °W | Updated 2 seconds ago

Rain
Rain
62.8 °F
Feels Like 62.8 °F
N
3.8
Wind Variable Wind from ESE
Gusts 7.6 mph

Today
High -- | Low -- °F
--% Chance of Precip.
Yesterday
High -- | Low -- °F
Precip. -- in
6:18 AM 7:35 PM
Full, 100% visible
Pressure 30.04 in
Visibility 7.0 miles
Clouds Mostly Cloudy 5000 ft
Overcast 6500 ft
Dew Point 61 °F
Humidity 94%
Rainfall 0.46 in
Snow Depth Not available.
UV 0 out of 12
Pollen 8.30 out of 12
Air Quality Not available.
Flu Activity Not available.
METAR KRPJ 290835Z AUTO 00000KT 7SM RA BKN050 OVC065 17/16 A3004 RMK AO2 LTG DSNT W P0005 T01710163
Pressure 30.04 in
Visibility 7.0 miles
Clouds Mostly Cloudy 5000 ft
Overcast 6500 ft
Dew Point 61 °F
Humidity 94%
Rainfall 0.46 in
Snow Depth Not available.
UV 0 out of 12
Pollen 8.30 out of 12
Air Quality Not available.
Flu Activity Not available.
METAR KRPJ 290835Z AUTO 00000KT 7SM RA BKN050 OVC065 17/16 A3004 RMK AO2 LTG DSNT W P0005 T01710163

10-Day Weather Forecast

×

Almanac

Astronomy

Aug. 29, 2015 Rise Set
Actual Time
Civil Twilight
Nautical Twilight
Astronomical Twilight
Moon
Length of Visible Light
Length of Day
Tomorrow will be .
, % of the Moon is Illuminated

Today's Extremes

State Highs State Lows

Community

WunderPhotos

Upload Photos

1,850,634 photos uploaded!

WunderBlogs® & News

Nearby

Air Quality

  Air Quality AQ Index Pollutant
Not available.

Snow Depth

Station Depth Elevation

Earthquake Activity

City Distance Mag. Time & Date
Minimum magnitude displayed is 2.5.

Coastal Water Temperatures

Place Temperature

Stations

Nearby Weather Stations

Station Location Temp. Windchill Dew Point Humidity Wind Precip. Elev Updated Type